Time;durP1;ratioP1;P1;durP2;ratioP2;P2;SDS_P1;SDS_P2;PMS_P1;PMS_P2;Temp;Humidity;BMP_temperature;BMP_pressure;BME280_temperature;BME280_humidity;BME280_pressure;Samples;Min_cycle;Max_cycle;Signal;HPM_P1;HPM_P2
2023/09/13 00:02:15;;;;;;;0.40;0.40;;;19.20;99.90;;;;;;5114396;28;20161;-77
2023/09/13 00:04:41;;;;;;;0.30;0.30;;;19.20;99.90;;;;;;5114584;28;20091;-78
2023/09/13 00:07:07;;;;;;;0.30;0.30;;;19.20;99.90;;;;;;5114492;28;20530;-78
2023/09/13 00:09:32;;;;;;;0.43;0.40;;;19.10;99.90;;;;;;5113988;28;20043;-77
2023/09/13 00:11:58;;;;;;;0.60;0.40;;;19.20;99.90;;;;;;5114176;28;20049;-77
2023/09/13 00:14:24;;;;;;;0.30;0.30;;;19.20;99.90;;;;;;5114059;28;20118;-77
2023/09/13 00:16:52;;;;;;;0.30;0.30;;;19.10;99.90;;;;;;5114471;28;20363;-77
2023/09/13 00:19:18;;;;;;;0.77;0.30;;;19.20;99.90;;;;;;5114356;28;20035;-77
2023/09/13 00:21:44;;;;;;;0.40;0.40;;;19.20;99.90;;;;;;5114072;28;20104;-78
2023/09/13 00:24:10;;;;;;;0.93;0.63;;;19.20;99.90;;;;;;5114067;28;20118;-77
2023/09/13 00:26:36;;;;;;;1.63;0.90;;;19.20;99.90;;;;;;5114019;28;20221;-78
2023/09/13 00:29:01;;;;;;;1.13;1.03;;;19.10;99.90;;;;;;5114241;28;20357;-78
2023/09/13 00:31:27;;;;;;;0.60;0.60;;;19.10;99.90;;;;;;5114030;28;20379;-77
2023/09/13 00:33:53;;;;;;;0.30;0.30;;;19.10;99.90;;;;;;5113783;28;20043;-78
2023/09/13 00:36:18;;;;;;;0.33;0.33;;;19.00;99.90;;;;;;5113957;28;20119;-77
2023/09/13 00:38:44;;;;;;;0.40;0.40;;;19.00;99.90;;;;;;5115743;28;20378;-78
2023/09/13 00:41:10;;;;;;;0.30;0.30;;;19.00;99.90;;;;;;5118023;28;20032;-78
2023/09/13 00:43:36;;;;;;;0.30;0.30;;;19.00;99.90;;;;;;5118481;28;20371;-77
2023/09/13 00:46:03;;;;;;;0.37;0.30;;;19.10;99.90;;;;;;5118372;28;20039;-77
2023/09/13 00:48:30;;;;;;;1.58;0.73;;;19.00;99.90;;;;;;5117947;28;20040;-77
2023/09/13 00:50:57;;;;;;;1.42;0.45;;;19.10;99.90;;;;;;5117958;27;20086;-77
2023/09/13 00:53:25;;;;;;;0.20;0.20;;;19.00;99.90;;;;;;5117714;28;20071;-77
2023/09/13 00:55:51;;;;;;;0.40;0.40;;;19.00;99.90;;;;;;5117399;28;20455;-77
2023/09/13 00:58:18;;;;;;;;;;;19.00;99.90;;;;;;5118234;28;20044;-78
2023/09/13 01:00:45;;;;;;;0.35;0.35;;;19.00;99.90;;;;;;5117652;28;20010;-77
2023/09/13 01:03:14;;;;;;;0.30;0.30;;;19.00;99.90;;;;;;5117689;27;20042;-78
2023/09/13 01:05:40;;;;;;;0.30;0.30;;;19.00;99.90;;;;;;5117546;28;20044;-78
2023/09/13 01:08:07;;;;;;;0.37;0.37;;;19.00;99.90;;;;;;5117403;28;20383;-77
2023/09/13 01:10:33;;;;;;;0.30;0.30;;;18.90;99.90;;;;;;5117544;28;20057;-78
2023/09/13 01:12:58;;;;;;;0.73;0.63;;;18.90;99.90;;;;;;5117337;28;20042;-78
2023/09/13 01:15:28;;;;;;;1.07;0.97;;;18.90;99.90;;;;;;5117427;28;20065;-77
2023/09/13 01:18:11;;;;;;;0.40;0.40;;;18.90;99.90;;;;;;5117392;28;20118;-77
2023/09/13 01:21:05;;;;;;;0.30;0.30;;;18.90;99.90;;;;;;5117081;28;20471;-77
2023/09/13 01:23:50;;;;;;;0.40;0.38;;;18.90;99.90;;;;;;5085735;28;20048;-77
2023/09/13 01:26:24;;;;;;;0.40;0.40;;;18.80;99.90;;;;;;5115939;28;20079;-78
2023/09/13 01:28:53;;;;;;;0.20;0.20;;;18.80;99.90;;;;;;5117331;28;20079;-78
2023/09/13 01:31:21;;;;;;;0.60;0.60;;;18.80;99.90;;;;;;5115771;28;20379;-77
2023/09/13 01:33:47;;;;;;;1.40;0.77;;;18.80;99.90;;;;;;5116997;28;20112;-77
2023/09/13 01:36:13;;;;;;;0.30;0.30;;;18.80;99.90;;;;;;5117055;28;20463;-78
2023/09/13 01:38:39;;;;;;;0.30;0.30;;;18.70;99.90;;;;;;5117092;28;20043;-78
2023/09/13 01:41:27;;;;;;;0.40;0.40;;;18.70;99.90;;;;;;5115876;28;20050;-77
2023/09/13 01:43:54;;;;;;;;;;;18.60;99.90;;;;;;5117471;28;20036;-77
2023/09/13 01:46:27;;;;;;;0.65;0.65;;;18.60;99.90;;;;;;5116871;28;20003;-78
2023/09/13 01:48:57;;;;;;;0.30;0.30;;;18.60;99.90;;;;;;5117035;28;20039;-78
2023/09/13 01:51:27;;;;;;;0.22;0.22;;;18.60;99.90;;;;;;5115938;28;20075;-77
2023/09/13 01:53:54;;;;;;;0.47;0.47;;;18.60;99.90;;;;;;5116800;28;20444;-78
2023/09/13 01:56:21;;;;;;;0.40;0.40;;;18.50;99.90;;;;;;5116660;28;20042;-77
2023/09/13 01:58:50;;;;;;;0.30;0.30;;;18.50;99.90;;;;;;5117146;28;20079;-77
2023/09/13 02:01:17;;;;;;;0.40;0.40;;;18.40;99.90;;;;;;5116258;28;20118;-77
2023/09/13 02:03:43;;;;;;;0.30;0.30;;;18.40;99.90;;;;;;5116524;28;20039;-77
2023/09/13 02:06:09;;;;;;;0.28;0.28;;;18.40;99.90;;;;;;5116525;28;20157;-78
2023/09/13 02:08:35;;;;;;;0.30;0.30;;;18.30;99.90;;;;;;5115095;28;20067;-78
2023/09/13 02:11:00;;;;;;;0.80;0.40;;;18.30;99.90;;;;;;5116366;28;20097;-77
2023/09/13 02:13:26;;;;;;;0.30;0.30;;;18.30;99.90;;;;;;5116272;28;20035;-77
2023/09/13 02:15:52;;;;;;;0.20;0.20;;;18.30;99.90;;;;;;5116452;28;20043;-77
2023/09/13 02:18:17;;;;;;;0.20;0.20;;;18.30;99.90;;;;;;5116246;28;20490;-77
2023/09/13 02:20:44;;;;;;;0.30;0.30;;;18.30;99.90;;;;;;5116531;28;20042;-77
2023/09/13 02:23:10;;;;;;;0.30;0.30;;;18.30;99.90;;;;;;5116172;28;20382;-78
2023/09/13 02:25:36;;;;;;;0.30;0.30;;;18.30;99.90;;;;;;5116095;28;20035;-77
2023/09/13 02:28:03;;;;;;;;;;;18.30;99.90;;;;;;5116923;28;20043;-77
2023/09/13 02:30:30;;;;;;;0.30;0.30;;;18.30;99.90;;;;;;5114831;28;19962;-77
2023/09/13 02:32:55;;;;;;;0.30;0.30;;;18.30;99.90;;;;;;5115792;28;20081;-78
2023/09/13 02:35:21;;;;;;;0.60;0.60;;;18.30;99.90;;;;;;5115931;27;20043;-77
2023/09/13 02:37:48;;;;;;;0.30;0.30;;;18.30;99.90;;;;;;5115648;28;20044;-77
2023/09/13 02:40:13;;;;;;;0.35;0.35;;;18.20;99.90;;;;;;5115775;28;20085;-78
2023/09/13 02:42:39;;;;;;;0.50;0.50;;;18.20;99.90;;;;;;5115505;28;20043;-77
2023/09/13 02:45:06;;;;;;;0.30;0.30;;;18.10;99.90;;;;;;5115758;28;20083;-77
2023/09/13 02:47:32;;;;;;;0.30;0.30;;;18.10;99.90;;;;;;5115668;28;20032;-78
2023/09/13 02:49:57;;;;;;;0.63;0.50;;;18.10;99.90;;;;;;5115661;28;20035;-78
2023/09/13 02:52:28;;;;;;;0.30;0.30;;;18.00;99.90;;;;;;5115712;28;20051;-77
2023/09/13 02:54:54;;;;;;;0.28;0.28;;;18.00;99.90;;;;;;5115390;28;20427;-77
2023/09/13 02:57:20;;;;;;;0.50;0.50;;;17.90;99.90;;;;;;5115189;28;20467;-77
2023/09/13 02:59:46;;;;;;;0.30;0.30;;;17.90;99.90;;;;;;5115388;28;20047;-77
2023/09/13 03:02:12;;;;;;;0.47;0.47;;;18.00;99.90;;;;;;5114314;28;20108;-77
2023/09/13 03:04:37;;;;;;;0.30;0.30;;;17.90;99.90;;;;;;5115465;28;20455;-77
2023/09/13 03:07:03;;;;;;;0.30;0.30;;;17.90;99.90;;;;;;5115220;28;20118;-77
2023/09/13 03:09:29;;;;;;;0.30;0.30;;;17.90;99.90;;;;;;5115386;28;20108;-77
2023/09/13 03:11:54;;;;;;;0.30;0.30;;;17.90;99.90;;;;;;5115122;28;20459;-77
2023/09/13 03:14:20;;;;;;;0.30;0.30;;;17.90;99.90;;;;;;5115095;28;20037;-77
2023/09/13 03:16:46;;;;;;;0.47;0.30;;;17.80;99.90;;;;;;5115149;28;20127;-77
2023/09/13 03:19:11;;;;;;;0.30;0.30;;;17.80;99.90;;;;;;5115074;28;20036;-77
2023/09/13 03:21:37;;;;;;;0.30;0.30;;;17.80;99.90;;;;;;5115048;28;20048;-77
2023/09/13 03:24:04;;;;;;;2.63;0.73;;;17.80;99.90;;;;;;5113943;28;20039;-77
2023/09/13 03:26:31;;;;;;;0.38;0.38;;;17.80;99.90;;;;;;5113333;28;20052;-77
2023/09/13 03:28:57;;;;;;;0.30;0.30;;;17.70;99.90;;;;;;5115187;28;20475;-77
2023/09/13 03:31:24;;;;;;;0.37;0.37;;;17.70;99.90;;;;;;5114854;28;20038;-78
2023/09/13 03:33:52;;;;;;;0.30;0.30;;;17.70;99.90;;;;;;5114669;28;20046;-77
2023/09/13 03:36:18;;;;;;;0.40;0.40;;;17.60;99.90;;;;;;5114960;28;20043;-77
2023/09/13 03:38:45;;;;;;;0.40;0.40;;;17.70;99.90;;;;;;5114384;28;20067;-77
2023/09/13 03:41:19;;;;;;;0.30;0.30;;;17.70;99.90;;;;;;5114464;28;20122;-77
2023/09/13 03:43:44;;;;;;;0.30;0.30;;;17.70;99.90;;;;;;5114740;28;20032;-77
2023/09/13 03:46:10;;;;;;;0.40;0.40;;;17.70;99.90;;;;;;5114633;28;20143;-77
2023/09/13 03:48:37;;;;;;;0.30;0.30;;;17.70;99.90;;;;;;5114489;28;20040;-76
2023/09/13 03:51:03;;;;;;;0.35;0.35;;;17.70;99.90;;;;;;5114488;28;20031;-77
2023/09/13 03:53:29;;;;;;;0.40;0.40;;;17.60;99.90;;;;;;5114352;28;20044;-78
2023/09/13 03:55:56;;;;;;;0.30;0.30;;;17.60;99.90;;;;;;5114424;28;20042;-77
2023/09/13 03:58:22;;;;;;;0.30;0.30;;;17.60;99.90;;;;;;5114440;28;20101;-78
2023/09/13 04:00:48;;;;;;;0.37;0.37;;;17.60;99.90;;;;;;5114110;27;20035;-76
2023/09/13 04:03:15;;;;;;;0.30;0.30;;;17.60;99.90;;;;;;5114343;28;20107;-76
2023/09/13 04:05:40;;;;;;;;;;;17.60;99.90;;;;;;5114467;28;20431;-77
2023/09/13 04:08:06;;;;;;;0.30;0.30;;;17.60;99.90;;;;;;5114075;28;19962;-77
2023/09/13 04:10:32;;;;;;;0.57;0.40;;;17.50;99.90;;;;;;5114298;28;20455;-77
2023/09/13 04:12:57;;;;;;;0.50;0.50;;;17.50;99.90;;;;;;5114030;28;20035;-78
2023/09/13 04:15:23;;;;;;;0.63;0.63;;;17.50;99.90;;;;;;5114006;28;20039;-78
2023/09/13 04:17:49;;;;;;;0.57;0.57;;;17.50;99.90;;;;;;5114158;28;20039;-77
2023/09/13 04:20:15;;;;;;;0.30;0.30;;;17.50;99.90;;;;;;5114182;28;20040;-76
2023/09/13 04:22:41;;;;;;;0.30;0.30;;;17.50;99.90;;;;;;5114187;28;20501;-77
2023/09/13 04:25:07;;;;;;;0.30;0.30;;;17.40;99.90;;;;;;5113792;28;20044;-77
2023/09/13 04:27:33;;;;;;;0.30;0.30;;;17.40;99.90;;;;;;5114426;28;20130;-77
2023/09/13 04:29:58;;;;;;;0.30;0.30;;;17.40;99.90;;;;;;5114042;28;20082;-76
2023/09/13 04:32:24;;;;;;;0.33;0.33;;;17.40;99.90;;;;;;5114099;28;20466;-77
2023/09/13 04:34:51;;;;;;;1.80;0.90;;;17.40;99.90;;;;;;5113884;28;20035;-77
2023/09/13 04:37:17;;;;;;;0.30;0.30;;;17.40;99.90;;;;;;5113961;28;20096;-77
2023/09/13 04:39:42;;;;;;;0.37;0.37;;;17.40;99.90;;;;;;5114417;28;20032;-78
2023/09/13 04:42:09;;;;;;;1.30;0.67;;;17.30;99.90;;;;;;5112680;28;20053;-76
2023/09/13 04:44:34;;;;;;;0.30;0.30;;;17.30;99.90;;;;;;5114178;28;20042;-77
2023/09/13 04:47:00;;;;;;;0.60;0.60;;;17.30;99.90;;;;;;5113843;28;20402;-78
2023/09/13 04:49:26;;;;;;;0.30;0.30;;;17.40;99.90;;;;;;5113831;28;20035;-77
2023/09/13 04:51:52;;;;;;;0.20;0.20;;;17.40;99.90;;;;;;5113929;28;20475;-78
2023/09/13 04:54:22;;;;;;;0.30;0.30;;;17.40;99.90;;;;;;5114251;28;20043;-78
2023/09/13 04:56:50;;;;;;;0.30;0.30;;;17.40;99.90;;;;;;5113781;28;20039;-77
2023/09/13 04:59:16;;;;;;;3.28;0.60;;;17.30;99.90;;;;;;5113761;28;20039;-77
2023/09/13 05:01:42;;;;;;;0.20;0.20;;;17.30;99.90;;;;;;5113738;28;20035;-77
2023/09/13 05:04:08;;;;;;;0.70;0.70;;;17.30;99.90;;;;;;5113702;28;20613;-76
2023/09/13 05:06:33;;;;;;;0.30;0.30;;;17.30;99.90;;;;;;5113656;28;20061;-77
2023/09/13 05:08:59;;;;;;;0.30;0.30;;;17.30;99.90;;;;;;5113691;28;20097;-77
2023/09/13 05:11:25;;;;;;;0.30;0.30;;;17.30;99.90;;;;;;5114178;28;20114;-76
2023/09/13 05:14:07;;;;;;;2.07;1.03;;;17.30;99.90;;;;;;5113548;28;20092;-75
2023/09/13 05:16:32;;;;;;;0.90;0.47;;;17.30;99.90;;;;;;5112828;28;20036;-76
2023/09/13 05:18:58;;;;;;;0.30;0.30;;;17.20;99.90;;;;;;5113571;28;20050;-76
2023/09/13 05:21:24;;;;;;;0.30;0.30;;;17.20;99.90;;;;;;5113445;28;20079;-76
2023/09/13 05:23:49;;;;;;;0.20;0.20;;;17.20;99.90;;;;;;5113756;28;20048;-76
2023/09/13 05:26:15;;;;;;;0.47;0.47;;;17.20;99.90;;;;;;5115987;28;20478;-79
2023/09/13 05:28:41;;;;;;;0.50;0.50;;;17.10;99.90;;;;;;5117269;28;20067;-77
2023/09/13 05:31:06;;;;;;;0.30;0.30;;;17.20;99.90;;;;;;5117257;28;20051;-75
2023/09/13 05:33:33;;;;;;;0.50;0.50;;;17.20;99.90;;;;;;5117099;28;20039;-77
2023/09/13 05:35:59;;;;;;;0.30;0.30;;;17.20;99.90;;;;;;5117009;28;20077;-82
2023/09/13 05:38:25;;;;;;;0.30;0.30;;;17.10;99.90;;;;;;5117692;28;20518;-77
2023/09/13 05:40:51;;;;;;;0.40;0.40;;;17.10;99.90;;;;;;5117507;28;20539;-77
2023/09/13 05:43:16;;;;;;;0.97;0.40;;;17.10;99.90;;;;;;5117705;28;20059;-79
2023/09/13 05:45:42;;;;;;;0.83;0.40;;;17.00;99.90;;;;;;5116823;28;20042;-76
2023/09/13 05:48:08;;;;;;;0.30;0.30;;;17.00;99.90;;;;;;5116924;28;20251;-77
2023/09/13 05:50:33;;;;;;;8.33;0.50;;;17.00;99.90;;;;;;5116692;28;20483;-76
2023/09/13 05:52:59;;;;;;;0.40;0.40;;;17.00;99.90;;;;;;5116937;28;20118;-74
2023/09/13 05:55:25;;;;;;;0.30;0.30;;;17.00;99.90;;;;;;5116679;28;20039;-79
2023/09/13 05:57:51;;;;;;;6.20;1.33;;;17.00;99.90;;;;;;5116584;28;20374;-79
2023/09/13 06:00:17;;;;;;;0.30;0.30;;;17.00;99.90;;;;;;5116712;28;20046;-77
2023/09/13 06:02:43;;;;;;;0.40;0.30;;;16.90;99.90;;;;;;5116692;28;20031;-75
2023/09/13 06:05:11;;;;;;;0.30;0.30;;;16.80;99.90;;;;;;5116489;28;20471;-75
2023/09/13 06:07:37;;;;;;;0.55;0.55;;;16.80;99.90;;;;;;5116391;28;20040;-75
2023/09/13 06:10:04;;;;;;;0.20;0.20;;;16.80;99.90;;;;;;5117150;28;20152;-75
2023/09/13 06:12:31;;;;;;;0.30;0.30;;;16.70;99.90;;;;;;5116281;28;20334;-75
2023/09/13 06:14:57;;;;;;;0.40;0.40;;;16.60;99.90;;;;;;5116266;27;20043;-76
2023/09/13 06:17:23;;;;;;;0.30;0.30;;;16.60;99.90;;;;;;5116284;28;20486;-76
2023/09/13 06:19:52;;;;;;;1.75;0.52;;;16.50;99.90;;;;;;5116207;28;20075;-81
2023/09/13 06:22:18;;;;;;;0.32;0.32;;;16.40;99.90;;;;;;5115306;28;20379;-82
2023/09/13 06:24:44;;;;;;;0.47;0.47;;;16.30;99.90;;;;;;5114650;28;20042;-82
2023/09/13 06:27:10;;;;;;;0.40;0.40;;;16.10;99.90;;;;;;5116336;28;20516;-81
2023/09/13 06:29:35;;;;;;;0.30;0.30;;;16.00;99.90;;;;;;5116109;28;20036;-82
2023/09/13 06:32:02;;;;;;;0.40;0.40;;;15.80;99.90;;;;;;5116022;28;20447;-84
2023/09/13 06:34:28;;;;;;;;;;;15.70;99.90;;;;;;5116301;28;20043;-83
2023/09/13 06:36:55;;;;;;;0.45;0.45;;;15.50;99.90;;;;;;5115119;28;20361;-85
2023/09/13 06:39:21;;;;;;;;;;;15.40;99.90;;;;;;5120316;28;20085;-83
2023/09/13 06:41:46;;;;;;;0.30;0.30;;;15.30;99.90;;;;;;5120161;28;19916;-83
2023/09/13 06:44:12;;;;;;;0.50;0.50;;;15.20;99.90;;;;;;5119109;28;20077;-84
2023/09/13 06:46:38;;;;;;;0.40;0.40;;;15.20;99.90;;;;;;5115240;28;20360;-84
2023/09/13 06:49:04;;;;;;;0.30;0.30;;;15.10;99.90;;;;;;5114661;28;20084;-84
2023/09/13 06:51:30;;;;;;;0.67;0.67;;;15.00;99.90;;;;;;5097867;28;20273;-82
2023/09/13 06:53:56;;;;;;;0.40;0.40;;;14.90;99.90;;;;;;5115500;28;20606;-83
2023/09/13 06:56:22;;;;;;;1.07;0.73;;;14.90;99.90;;;;;;5115529;28;20044;-82
2023/09/13 06:58:47;;;;;;;4.90;1.03;;;14.90;99.90;;;;;;5114320;28;20284;-85
2023/09/13 07:01:13;;;;;;;0.40;0.40;;;14.80;99.90;;;;;;5098396;28;20337;-82
2023/09/13 07:03:39;;;;;;;0.30;0.30;;;14.90;99.90;;;;;;5115317;28;20054;-84
2023/09/13 07:06:05;;;;;;;0.30;0.30;;;14.80;99.90;;;;;;5097542;28;20044;-82
2023/09/13 07:08:31;;;;;;;0.30;0.30;;;14.80;99.90;;;;;;5114108;28;20126;-82
2023/09/13 07:10:56;;;;;;;0.40;0.40;;;14.80;99.90;;;;;;5114362;28;20104;-81
2023/09/13 07:13:22;;;;;;;0.50;0.50;;;14.80;99.90;;;;;;5115128;28;20463;-82
2023/09/13 07:15:48;;;;;;;0.47;0.47;;;14.70;99.90;;;;;;5113879;28;20063;-83
2023/09/13 07:18:14;;;;;;;0.30;0.30;;;14.70;99.90;;;;;;5114139;28;20532;-83
2023/09/13 07:20:40;;;;;;;0.35;0.35;;;14.80;99.90;;;;;;5115086;28;20043;-83
2023/09/13 07:23:06;;;;;;;0.50;0.50;;;14.80;99.90;;;;;;5097127;28;20420;-82
2023/09/13 07:25:31;;;;;;;0.30;0.30;;;14.80;99.90;;;;;;5115319;28;20074;-81
2023/09/13 07:27:58;;;;;;;0.40;0.40;;;14.70;99.90;;;;;;5113825;28;20404;-81
2023/09/13 07:30:24;;;;;;;0.30;0.30;;;14.70;99.90;;;;;;5114055;28;20366;-83
2023/09/13 07:32:49;;;;;;;0.40;0.40;;;14.80;99.90;;;;;;5115122;28;20032;-83
2023/09/13 07:35:15;;;;;;;0.40;0.40;;;14.80;99.90;;;;;;5114710;28;20055;-82
2023/09/13 07:37:41;;;;;;;0.30;0.30;;;14.80;99.90;;;;;;5114845;28;20040;-83
2023/09/13 07:40:07;;;;;;;0.63;0.52;;;14.80;99.90;;;;;;5113693;28;20039;-81
2023/09/13 07:42:33;;;;;;;0.40;0.40;;;14.80;99.90;;;;;;5113333;28;20471;-84
2023/09/13 07:44:59;;;;;;;0.30;0.30;;;14.70;99.90;;;;;;5114751;28;20040;-82
2023/09/13 07:47:27;;;;;;;0.50;0.50;;;14.80;99.90;;;;;;5115300;28;20040;-89
2023/09/13 07:49:53;;;;;;;0.75;0.50;;;15.50;99.90;;;;;;5097289;28;20159;-80
2023/09/13 07:52:19;;;;;;;0.30;0.30;;;15.10;99.90;;;;;;5114961;28;20471;-79
2023/09/13 07:54:44;;;;;;;0.40;0.40;;;14.80;99.90;;;;;;5114205;28;20038;-80
2023/09/13 07:57:10;;;;;;;0.50;0.50;;;14.80;99.90;;;;;;5114533;28;20463;-80
2023/09/13 07:59:36;;;;;;;0.40;0.40;;;14.80;99.90;;;;;;5114434;28;20051;-80
2023/09/13 08:02:03;;;;;;;0.77;0.60;;;14.80;99.90;;;;;;5114156;28;20077;-81
2023/09/13 08:04:29;;;;;;;0.60;0.60;;;14.80;99.90;;;;;;5114338;28;20039;-79
2023/09/13 08:06:54;;;;;;;0.30;0.30;;;14.80;99.90;;;;;;5114603;28;20088;-80
2023/09/13 08:09:20;;;;;;;0.40;0.40;;;14.90;99.90;;;;;;5113878;28;20122;-78
2023/09/13 08:11:47;;;;;;;0.55;0.55;;;14.90;99.90;;;;;;5114065;28;20047;-80
2023/09/13 08:14:12;;;;;;;0.30;0.30;;;14.90;99.90;;;;;;5113044;28;20036;-80
2023/09/13 08:16:39;;;;;;;0.67;0.67;;;14.90;99.90;;;;;;5114202;28;20471;-80
2023/09/13 08:19:04;;;;;;;0.47;0.47;;;15.00;99.90;;;;;;5114183;28;20092;-86
2023/09/13 08:21:30;;;;;;;0.30;0.30;;;15.00;99.90;;;;;;5112966;28;20028;-85
2023/09/13 08:23:56;;;;;;;0.77;0.67;;;15.10;99.90;;;;;;5096396;28;20051;-89
2023/09/13 08:26:21;;;;;;;0.40;0.40;;;15.60;99.90;;;;;;5114197;28;20126;-85
2023/09/13 08:28:47;;;;;;;0.90;0.50;;;15.10;99.90;;;;;;5113088;28;20032;-84
2023/09/13 08:31:13;;;;;;;0.87;0.80;;;15.10;99.90;;;;;;5113301;28;20035;-84
2023/09/13 08:33:38;;;;;;;1.83;0.67;;;15.10;99.90;;;;;;5112918;28;20039;-86
2023/09/13 08:36:04;;;;;;;0.40;0.40;;;15.50;99.90;;;;;;5096087;28;20042;-86
2023/09/13 08:38:30;;;;;;;0.50;0.50;;;15.20;99.90;;;;;;5096646;28;20118;-85
2023/09/13 08:40:55;;;;;;;0.40;0.40;;;15.20;99.90;;;;;;5113984;28;20038;-85
2023/09/13 08:43:22;;;;;;;0.30;0.30;;;15.20;99.90;;;;;;5113132;28;20035;-85
2023/09/13 08:45:49;;;;;;;0.40;0.40;;;15.30;99.90;;;;;;5113128;28;20036;-85
2023/09/13 08:48:17;;;;;;;0.30;0.30;;;15.30;99.90;;;;;;5113023;28;20039;-84
2023/09/13 08:50:43;;;;;;;0.40;0.40;;;15.30;99.90;;;;;;5113916;28;20044;-85
2023/09/13 08:53:10;;;;;;;0.45;0.45;;;15.30;99.90;;;;;;5112655;28;20038;-84
2023/09/13 08:55:38;;;;;;;0.40;0.40;;;15.20;99.90;;;;;;5095951;28;20050;-85
2023/09/13 08:58:04;;;;;;;0.38;0.38;;;15.30;99.90;;;;;;5095610;28;20042;-85
2023/09/13 09:00:33;;;;;;;0.50;0.50;;;15.30;99.90;;;;;;5098688;28;20047;-85
2023/09/13 09:03:04;;;;;;;0.68;0.50;;;15.30;99.90;;;;;;5116850;28;20039;-85
2023/09/13 09:05:31;;;;;;;0.40;0.40;;;15.30;99.90;;;;;;5115815;28;20089;-85
2023/09/13 09:07:58;;;;;;;0.30;0.30;;;15.40;99.90;;;;;;5116410;28;20039;-85
2023/09/13 09:10:24;;;;;;;0.40;0.40;;;15.40;99.90;;;;;;5116813;28;20050;-83
2023/09/13 09:12:52;;;;;;;0.40;0.32;;;15.50;99.90;;;;;;5099208;28;20423;-83
2023/09/13 09:15:19;;;;;;;0.47;0.47;;;15.60;99.90;;;;;;5116375;28;20074;-83
2023/09/13 09:17:46;;;;;;;;;;;15.70;99.90;;;;;;5118167;28;20517;-85
2023/09/13 09:20:12;;;;;;;0.63;0.63;;;15.90;99.90;;;;;;5116710;28;20053;-87
2023/09/13 09:22:38;;;;;;;0.40;0.40;;;15.90;99.90;;;;;;5116807;28;20067;-84
2023/09/13 09:25:13;;;;;;;0.65;0.60;;;16.10;99.90;;;;;;5116557;28;20047;-84
2023/09/13 09:27:39;;;;;;;0.47;0.47;;;16.10;99.90;;;;;;5116392;28;20055;-81
2023/09/13 09:30:07;;;;;;;0.32;0.32;;;16.20;99.90;;;;;;5116287;28;20040;-84
2023/09/13 09:32:38;;;;;;;0.50;0.40;;;16.30;99.90;;;;;;5116486;28;20044;-85
2023/09/13 09:35:07;;;;;;;0.40;0.40;;;16.40;99.90;;;;;;5117647;28;20039;-83
2023/09/13 09:37:34;;;;;;;0.50;0.50;;;16.50;99.90;;;;;;5117175;28;20071;-84
2023/09/13 09:40:00;;;;;;;0.82;0.65;;;16.60;99.90;;;;;;5099674;28;20043;-83
2023/09/13 09:42:26;;;;;;;0.57;0.57;;;16.60;99.90;;;;;;5117423;28;20101;-83
2023/09/13 09:44:52;;;;;;;0.40;0.40;;;16.60;99.90;;;;;;5116135;28;20040;-81
2023/09/13 09:47:19;;;;;;;0.40;0.40;;;16.60;99.90;;;;;;5115724;28;20765;-85
2023/09/13 09:49:52;;;;;;;0.45;0.40;;;16.70;99.90;;;;;;5115930;28;20071;-83
2023/09/13 09:52:18;;;;;;;0.47;0.47;;;16.70;99.90;;;;;;5116994;28;20118;-81
2023/09/13 09:54:48;;;;;;;0.38;0.38;;;16.80;99.90;;;;;;5081494;28;20494;-81
2023/09/13 09:57:23;;;;;;;0.30;0.30;;;17.00;99.90;;;;;;5116731;28;20467;-79
2023/09/13 09:59:49;;;;;;;0.40;0.40;;;17.10;99.90;;;;;;5116363;28;20478;-82
2023/09/13 10:02:15;;;;;;;0.32;0.32;;;17.10;99.90;;;;;;5116695;28;20047;-80
2023/09/13 10:04:45;;;;;;;0.43;0.43;;;17.20;99.90;;;;;;5116886;28;20035;-79
2023/09/13 10:07:11;;;;;;;0.30;0.30;;;17.10;99.90;;;;;;5116667;28;20043;-79
2023/09/13 10:09:43;;;;;;;0.40;0.40;;;17.10;99.90;;;;;;5117075;28;20047;-79
2023/09/13 10:12:10;;;;;;;0.77;0.77;;;17.10;99.90;;;;;;5116417;28;20504;-79
2023/09/13 10:14:37;;;;;;;;;;;17.10;99.90;;;;;;5116860;28;20084;-81
2023/09/13 10:17:04;;;;;;;0.47;0.47;;;17.10;99.90;;;;;;5116531;27;20096;-78
2023/09/13 10:19:31;;;;;;;0.32;0.32;;;17.00;99.90;;;;;;5116526;28;20118;-83
2023/09/13 10:21:57;;;;;;;0.38;0.38;;;17.00;99.90;;;;;;5115055;28;20035;-81
2023/09/13 10:24:25;;;;;;;0.45;0.45;;;17.20;99.90;;;;;;5116231;28;20057;-81
2023/09/13 10:26:55;;;;;;;0.38;0.38;;;17.40;99.90;;;;;;5116368;28;20044;-80
2023/09/13 10:29:31;;;;;;;0.43;0.43;;;17.60;99.90;;;;;;5116061;28;20123;-82
2023/09/13 10:32:02;;;;;;;0.30;0.30;;;17.60;99.90;;;;;;5116014;27;20462;-83
2023/09/13 10:34:29;;;;;;;0.30;0.30;;;17.60;99.90;;;;;;5114814;28;20119;-81
2023/09/13 10:37:06;;;;;;;0.35;0.35;;;17.70;99.90;;;;;;5098207;28;20039;-78
2023/09/13 10:39:37;;;;;;;0.40;0.40;;;17.50;99.90;;;;;;5116476;28;20423;-78
2023/09/13 10:42:06;;;;;;;0.52;0.52;;;17.40;99.90;;;;;;5115837;28;20043;-78
2023/09/13 10:44:34;;;;;;;0.50;0.50;;;17.40;99.90;;;;;;5115972;28;20043;-83
2023/09/13 10:47:00;;;;;;;0.57;0.45;;;17.60;99.90;;;;;;5114536;28;20047;-84
2023/09/13 10:49:26;;;;;;;0.93;0.93;;;17.60;99.90;;;;;;5114799;28;20134;-88
2023/09/13 10:51:55;;;;;;;0.30;0.30;;;17.70;99.90;;;;;;5097516;28;20079;-84
2023/09/13 10:54:22;;;;;;;0.57;0.40;;;17.90;99.90;;;;;;5115293;28;20501;-82
2023/09/13 10:56:49;;;;;;;0.40;0.40;;;18.00;99.90;;;;;;5114880;28;20518;-82
2023/09/13 10:59:19;;;;;;;0.32;0.32;;;18.00;99.90;;;;;;5115444;28;20471;-83
2023/09/13 11:01:46;;;;;;;0.40;0.40;;;18.00;99.90;;;;;;5113954;28;20031;-78
2023/09/13 11:04:20;;;;;;;1.35;0.50;;;17.90;99.90;;;;;;5115365;28;20083;-77
2023/09/13 11:06:48;;;;;;;0.30;0.30;;;17.70;99.90;;;;;;5115376;28;20036;-78
2023/09/13 11:09:24;;;;;;;0.93;0.57;;;17.50;99.90;;;;;;5115046;28;20052;-77
2023/09/13 11:11:54;;;;;;;0.30;0.30;;;17.40;99.90;;;;;;5115610;28;20043;-75
2023/09/13 11:14:27;;;;;;;0.30;0.30;;;17.10;99.90;;;;;;5115109;28;20363;-77
2023/09/13 11:16:53;;;;;;;0.30;0.30;;;17.00;99.90;;;;;;5115000;28;20045;-77
2023/09/13 11:19:26;;;;;;;0.40;0.40;;;16.80;99.90;;;;;;5115122;28;20035;-75
2023/09/13 11:21:57;;;;;;;0.30;0.30;;;16.70;99.90;;;;;;5113945;28;20050;-75
2023/09/13 11:24:45;;;;;;;0.30;0.30;;;16.60;99.90;;;;;;5113049;28;20382;-75
2023/09/13 11:27:12;;;;;;;0.30;0.30;;;16.50;99.90;;;;;;5112819;28;20068;-77
2023/09/13 11:29:46;;;;;;;0.30;0.30;;;16.50;99.90;;;;;;5114852;28;20035;-77
2023/09/13 11:32:20;;;;;;;0.40;0.40;;;16.60;99.90;;;;;;5115246;28;20450;-76
2023/09/13 11:34:55;;;;;;;0.40;0.40;;;16.60;99.90;;;;;;5115001;28;20042;-76
2023/09/13 11:37:24;;;;;;;0.30;0.30;;;16.70;99.90;;;;;;5114451;28;20420;-76
2023/09/13 11:40:13;;;;;;;1.00;0.40;;;16.80;99.90;;;;;;5114654;28;20071;-76
2023/09/13 11:42:40;;;;;;;0.40;0.40;;;16.90;99.90;;;;;;5114687;28;20063;-77
2023/09/13 11:45:10;;;;;;;0.47;0.47;;;17.30;99.90;;;;;;5112014;28;20071;-77
2023/09/13 11:47:36;;;;;;;0.30;0.30;;;17.20;99.90;;;;;;5113567;28;20071;-80
2023/09/13 11:50:05;;;;;;;1.10;0.40;;;17.30;99.90;;;;;;5112927;28;20513;-77
2023/09/13 11:53:09;;;;;;;0.30;0.30;;;17.40;99.90;;;;;;5113283;28;20475;-76
2023/09/13 11:55:45;;;;;;;0.50;0.50;;;17.60;99.90;;;;;;5113199;28;20463;-79
2023/09/13 11:58:17;;;;;;;0.30;0.30;;;17.70;99.90;;;;;;5096359;28;20044;-77
2023/09/13 12:00:43;;;;;;;0.70;0.70;;;17.80;99.90;;;;;;5113220;28;20370;-77
2023/09/13 12:03:09;;;;;;;0.30;0.30;;;17.80;99.90;;;;;;5112787;28;20483;-79
2023/09/13 12:05:38;;;;;;;0.55;0.40;;;17.90;99.90;;;;;;5113380;28;20092;-76
2023/09/13 12:08:22;;;;;;;0.30;0.30;;;17.90;99.90;;;;;;5112742;28;20048;-78
2023/09/13 12:10:50;;;;;;;0.30;0.30;;;17.90;99.90;;;;;;5114303;28;20079;-77
2023/09/13 12:13:16;;;;;;;0.30;0.30;;;18.00;99.90;;;;;;5095453;28;20114;-77
2023/09/13 12:15:58;;;;;;;0.30;0.30;;;18.20;99.90;;;;;;5113040;28;20122;-79
2023/09/13 12:18:24;;;;;;;0.93;0.75;;;18.40;99.90;;;;;;5113062;28;20356;-77
2023/09/13 12:20:51;;;;;;;0.32;0.32;;;18.50;99.90;;;;;;5114129;28;20425;-78
2023/09/13 12:23:17;;;;;;;0.30;0.30;;;18.60;99.90;;;;;;5112764;28;20109;-76
2023/09/13 12:25:43;;;;;;;0.43;0.43;;;18.80;99.90;;;;;;5112941;28;20040;-76
2023/09/13 12:28:09;;;;;;;0.30;0.30;;;18.90;99.90;;;;;;5113648;28;20039;-77
2023/09/13 12:30:35;;;;;;;0.33;0.33;;;19.00;99.90;;;;;;5114153;28;20109;-77
2023/09/13 12:33:02;;;;;;;0.30;0.30;;;19.10;99.90;;;;;;5112521;28;20040;-77
2023/09/13 12:35:28;;;;;;;0.30;0.30;;;19.20;99.90;;;;;;5115823;28;20051;-76
2023/09/13 12:38:00;;;;;;;0.30;0.30;;;19.10;99.90;;;;;;5118575;28;20043;-76
2023/09/13 12:40:29;;;;;;;0.52;0.47;;;18.90;99.90;;;;;;5117919;27;20051;-76
2023/09/13 12:42:58;;;;;;;0.40;0.40;;;18.80;99.90;;;;;;5118142;28;20073;-78
2023/09/13 12:45:28;;;;;;;0.30;0.30;;;18.70;99.90;;;;;;5117966;28;20071;-76
2023/09/13 12:47:55;;;;;;;0.20;0.20;;;18.60;99.90;;;;;;5118414;28;20088;-77
2023/09/13 12:50:21;;;;;;;0.30;0.30;;;18.50;99.90;;;;;;5118102;28;20122;-78